Time;durP1;ratioP1;P1;durP2;ratioP2;P2;SDS_P1;SDS_P2;PMS_P1;PMS_P2;Temp;Humidity;BMP_temperature;BMP_pressure;BME280_temperature;BME280_humidity;BME280_pressure;Samples;Min_cycle;Max_cycle;Signal;HPM_P1;HPM_P2
2023/10/30 00:01:34;;;;;;;1.85;0.88;;;;;;;;;;5094937;28;20032;-58
2023/10/30 00:04:00;;;;;;;1.98;0.90;;;;;;;;;;5094273;28;20032;-58
2023/10/30 00:06:26;;;;;;;2.00;1.10;;;;;;;;;;5094796;28;20457;-58
2023/10/30 00:08:52;;;;;;;1.17;0.60;;;;;;;;;;5094775;28;20024;-58
2023/10/30 00:11:18;;;;;;;1.63;0.80;;;;;;;;;;5093770;28;20027;-60
2023/10/30 00:13:44;;;;;;;2.28;0.85;;;;;;;;;;5093749;28;20027;-58
2023/10/30 00:16:10;;;;;;;1.48;0.98;;;;;;;;;;5094050;28;20016;-58
2023/10/30 00:18:41;;;;;;;1.52;0.68;;;;;;;;;;5093977;28;20024;-58
2023/10/30 00:21:07;;;;;;;2.42;1.15;;;;;;;;;;5094329;28;20024;-58
2023/10/30 00:23:33;;;;;;;2.58;1.00;;;;;;;;;;5094220;28;20442;-58
2023/10/30 00:25:59;;;;;;;1.63;0.93;;;;;;;;;;5094497;28;20349;-58
2023/10/30 00:28:27;;;;;;;2.28;1.05;;;;;;;;;;5094091;28;20473;-58
2023/10/30 00:30:53;;;;;;;1.60;0.80;;;;;;;;;;5094477;28;20081;-58
2023/10/30 00:33:19;;;;;;;2.10;1.20;;;;;;;;;;5093763;28;20020;-58
2023/10/30 00:35:45;;;;;;;1.60;0.88;;;;;;;;;;5093610;28;20028;-57
2023/10/30 00:38:11;;;;;;;2.13;0.90;;;;;;;;;;5094257;28;20051;-57
2023/10/30 00:40:37;;;;;;;1.65;0.98;;;;;;;;;;5094202;28;20020;-57
2023/10/30 00:43:04;;;;;;;1.08;0.50;;;;;;;;;;5093449;28;20060;-57
2023/10/30 00:45:30;;;;;;;1.52;0.82;;;;;;;;;;5093755;28;20024;-57
2023/10/30 00:47:56;;;;;;;3.33;1.00;;;;;;;;;;5093740;28;20392;-57
2023/10/30 00:50:22;;;;;;;1.40;0.77;;;;;;;;;;5093378;28;20059;-57
2023/10/30 00:52:48;;;;;;;1.67;0.93;;;;;;;;;;5094148;28;20058;-57
2023/10/30 00:55:14;;;;;;;1.17;0.57;;;;;;;;;;5094384;28;20350;-57
2023/10/30 00:57:40;;;;;;;1.23;0.82;;;;;;;;;;5093594;28;20347;-57
2023/10/30 01:00:06;;;;;;;1.33;0.73;;;;;;;;;;5093901;28;20116;-57
2023/10/30 01:02:32;;;;;;;3.08;0.57;;;;;;;;;;5093981;28;20062;-57
2023/10/30 01:04:58;;;;;;;1.70;0.60;;;;;;;;;;5094330;28;20059;-57
2023/10/30 01:07:24;;;;;;;0.68;0.32;;;;;;;;;;5093547;28;20385;-57
2023/10/30 01:09:50;;;;;;;1.42;0.70;;;;;;;;;;5097436;28;20031;-57
2023/10/30 01:12:16;;;;;;;0.75;0.38;;;;;;;;;;5097690;28;20039;-57
2023/10/30 01:14:42;;;;;;;1.40;0.73;;;;;;;;;;5097640;28;20028;-57
2023/10/30 01:17:08;;;;;;;2.92;0.70;;;;;;;;;;5097565;28;20077;-57
2023/10/30 01:19:34;;;;;;;1.08;0.50;;;;;;;;;;5097633;28;20043;-57
2023/10/30 01:22:00;;;;;;;0.80;0.40;;;;;;;;;;5097472;28;20051;-57
2023/10/30 01:24:26;;;;;;;1.25;0.38;;;;;;;;;;5097375;28;20027;-57
2023/10/30 01:26:52;;;;;;;1.33;0.50;;;;;;;;;;5097388;28;20024;-57
2023/10/30 01:29:18;;;;;;;0.85;0.38;;;;;;;;;;5097362;28;20079;-57
2023/10/30 01:31:45;;;;;;;1.17;0.52;;;;;;;;;;5097940;28;20035;-57
2023/10/30 01:34:11;;;;;;;1.15;0.43;;;;;;;;;;5097279;28;20024;-57
2023/10/30 01:36:36;;;;;;;0.90;0.40;;;;;;;;;;5097240;28;20054;-57
2023/10/30 01:39:03;;;;;;;1.65;0.70;;;;;;;;;;5097592;28;20460;-57
2023/10/30 01:41:28;;;;;;;1.73;0.70;;;;;;;;;;5097616;28;20446;-57
2023/10/30 01:43:54;;;;;;;3.03;0.47;;;;;;;;;;5097368;28;20047;-57
2023/10/30 01:46:20;;;;;;;1.20;0.60;;;;;;;;;;5097554;28;20085;-57
2023/10/30 01:48:46;;;;;;;1.33;0.52;;;;;;;;;;5096860;28;20449;-58
2023/10/30 01:51:13;;;;;;;0.63;0.28;;;;;;;;;;5097229;28;20028;-57
2023/10/30 01:53:39;;;;;;;1.27;0.60;;;;;;;;;;5096791;28;20024;-57
2023/10/30 01:56:06;;;;;;;1.20;0.50;;;;;;;;;;5096864;28;20099;-57
2023/10/30 01:58:32;;;;;;;0.88;0.47;;;;;;;;;;5096689;28;20032;-57
2023/10/30 02:01:01;;;;;;;2.92;0.52;;;;;;;;;;5097099;28;20028;-57
2023/10/30 02:03:28;;;;;;;0.57;0.35;;;;;;;;;;5096890;28;20019;-57
2023/10/30 02:05:55;;;;;;;0.88;0.40;;;;;;;;;;5096616;28;20110;-57
2023/10/30 02:08:21;;;;;;;0.75;0.40;;;;;;;;;;5096813;28;20093;-57
2023/10/30 02:10:47;;;;;;;1.20;0.63;;;;;;;;;;5097140;28;20369;-57
2023/10/30 02:13:13;;;;;;;0.90;0.57;;;;;;;;;;5096530;28;20111;-57
2023/10/30 02:15:39;;;;;;;11.38;0.90;;;;;;;;;;5096150;28;20115;-57
2023/10/30 02:18:05;;;;;;;2.10;0.75;;;;;;;;;;5096340;28;20457;-57
2023/10/30 02:20:32;;;;;;;3.45;0.88;;;;;;;;;;5095749;28;20069;-57
2023/10/30 02:22:58;;;;;;;1.80;0.63;;;;;;;;;;5096782;28;20366;-57
2023/10/30 02:25:25;;;;;;;1.38;0.77;;;;;;;;;;5096005;28;20024;-57
2023/10/30 02:27:51;;;;;;;1.70;0.80;;;;;;;;;;5096246;28;20115;-57
2023/10/30 02:30:17;;;;;;;1.15;0.63;;;;;;;;;;5096781;28;20035;-57
2023/10/30 02:32:44;;;;;;;0.90;0.43;;;;;;;;;;5096270;28;20039;-57
2023/10/30 02:35:13;;;;;;;1.20;0.55;;;;;;;;;;5096636;28;20036;-57
2023/10/30 02:37:40;;;;;;;2.35;1.25;;;;;;;;;;5096568;28;20481;-57
2023/10/30 02:40:06;;;;;;;1.05;0.50;;;;;;;;;;5096863;28;20047;-57
2023/10/30 02:42:32;;;;;;;1.17;0.60;;;;;;;;;;5095918;28;20031;-57
2023/10/30 02:44:59;;;;;;;0.77;0.40;;;;;;;;;;5095645;28;20024;-57
2023/10/30 02:47:25;;;;;;;1.23;0.63;;;;;;;;;;5096359;28;20032;-57
2023/10/30 02:49:51;;;;;;;1.38;0.65;;;;;;;;;;5096669;28;20028;-57
2023/10/30 02:52:18;;;;;;;0.65;0.40;;;;;;;;;;5096309;28;20024;-58
2023/10/30 02:54:44;;;;;;;1.23;0.60;;;;;;;;;;5095747;28;20036;-57
2023/10/30 02:57:10;;;;;;;1.10;0.60;;;;;;;;;;5096114;28;20032;-56
2023/10/30 02:59:36;;;;;;;1.63;0.65;;;;;;;;;;5095189;28;20130;-57
2023/10/30 03:02:02;;;;;;;0.95;0.57;;;;;;;;;;5096086;28;20426;-57
2023/10/30 03:04:28;;;;;;;1.80;0.85;;;;;;;;;;5095446;28;20051;-58
2023/10/30 03:06:54;;;;;;;1.27;0.50;;;;;;;;;;5095433;28;20028;-57
2023/10/30 03:09:20;;;;;;;1.70;0.93;;;;;;;;;;5095905;28;20024;-57
2023/10/30 03:11:46;;;;;;;1.55;0.88;;;;;;;;;;5095327;28;20032;-57
2023/10/30 03:14:12;;;;;;;3.17;1.15;;;;;;;;;;5095386;28;20020;-57
2023/10/30 03:16:38;;;;;;;2.03;1.10;;;;;;;;;;5095002;28;20024;-57
2023/10/30 03:19:04;;;;;;;1.52;1.00;;;;;;;;;;5095667;28;20094;-57
2023/10/30 03:21:30;;;;;;;2.45;1.17;;;;;;;;;;5096051;28;20442;-57
2023/10/30 03:23:56;;;;;;;1.58;0.77;;;;;;;;;;5095742;28;20365;-57
2023/10/30 03:26:24;;;;;;;2.28;1.25;;;;;;;;;;5095059;28;20024;-57
2023/10/30 03:28:50;;;;;;;1.75;0.90;;;;;;;;;;5094578;28;20036;-57
2023/10/30 03:31:16;;;;;;;1.85;1.20;;;;;;;;;;5094949;28;20062;-57
2023/10/30 03:33:42;;;;;;;1.95;0.95;;;;;;;;;;5095384;28;20030;-57
2023/10/30 03:36:08;;;;;;;1.77;1.00;;;;;;;;;;5094719;28;20105;-57
2023/10/30 03:38:34;;;;;;;2.13;0.82;;;;;;;;;;5094674;28;20043;-57
2023/10/30 03:41:00;;;;;;;3.45;1.10;;;;;;;;;;5095385;28;20024;-57
2023/10/30 03:43:26;;;;;;;1.98;0.80;;;;;;;;;;5095203;28;20024;-57
2023/10/30 03:45:52;;;;;;;1.63;0.90;;;;;;;;;;5095246;28;20457;-57
2023/10/30 03:48:18;;;;;;;1.45;0.85;;;;;;;;;;5094647;28;20424;-57
2023/10/30 03:50:44;;;;;;;4.18;1.08;;;;;;;;;;5094869;28;20458;-57
2023/10/30 03:53:10;;;;;;;1.95;0.90;;;;;;;;;;5094891;28;20024;-57
2023/10/30 03:55:36;;;;;;;2.88;0.93;;;;;;;;;;5094261;28;20059;-57
2023/10/30 03:58:03;;;;;;;1.63;1.10;;;;;;;;;;5094394;28;20068;-58
2023/10/30 04:00:29;;;;;;;1.83;0.73;;;;;;;;;;5095262;28;20038;-57
2023/10/30 04:02:55;;;;;;;1.25;0.60;;;;;;;;;;5094964;28;20035;-57
2023/10/30 04:05:21;;;;;;;2.05;1.00;;;;;;;;;;5094308;28;20028;-58
2023/10/30 04:07:47;;;;;;;2.03;1.17;;;;;;;;;;5094408;28;20077;-58
2023/10/30 04:10:13;;;;;;;1.35;0.82;;;;;;;;;;5094322;28;20024;-57
2023/10/30 04:12:39;;;;;;;1.98;0.70;;;;;;;;;;5093841;28;20024;-57
2023/10/30 04:15:05;;;;;;;1.23;0.55;;;;;;;;;;5094655;28;20039;-57
2023/10/30 04:17:31;;;;;;;3.20;0.65;;;;;;;;;;5094330;28;20111;-57
2023/10/30 04:19:57;;;;;;;1.08;0.50;;;;;;;;;;5094490;28;20114;-57
2023/10/30 04:22:23;;;;;;;0.50;0.22;;;;;;;;;;5092747;28;20023;-57
2023/10/30 04:24:49;;;;;;;1.80;0.60;;;;;;;;;;5094873;28;20361;-57
2023/10/30 04:27:14;;;;;;;0.82;0.40;;;;;;;;;;5094547;28;20035;-57
2023/10/30 04:29:41;;;;;;;1.20;0.63;;;;;;;;;;5094204;28;20031;-58
2023/10/30 04:32:07;;;;;;;1.52;0.82;;;;;;;;;;5093518;28;20465;-57
2023/10/30 04:34:33;;;;;;;1.10;0.60;;;;;;;;;;5093794;28;20017;-57
2023/10/30 04:37:00;;;;;;;3.13;1.08;;;;;;;;;;5093505;28;20055;-57
2023/10/30 04:39:26;;;;;;;2.08;1.08;;;;;;;;;;5093561;28;20036;-57
2023/10/30 04:41:54;;;;;;;1.77;1.00;;;;;;;;;;5093455;28;20069;-57
2023/10/30 04:44:20;;;;;;;2.80;1.05;;;;;;;;;;5093051;28;20077;-57
2023/10/30 04:46:46;;;;;;;3.80;1.67;;;;;;;;;;5094189;28;20024;-57
2023/10/30 04:49:12;;;;;;;1.83;1.30;;;;;;;;;;5093210;28;20028;-57
2023/10/30 04:51:38;;;;;;;2.05;1.45;;;;;;;;;;5093861;28;20036;-57
2023/10/30 04:54:04;;;;;;;2.92;2.28;;;;;;;;;;5093648;28;20062;-57
2023/10/30 04:56:30;;;;;;;2.65;2.33;;;;;;;;;;5094385;28;20097;-57
2023/10/30 04:58:56;;;;;;;3.42;2.47;;;;;;;;;;5093520;28;20468;-57
2023/10/30 05:01:22;;;;;;;4.65;2.22;;;;;;;;;;5094212;28;20024;-57
2023/10/30 05:03:48;;;;;;;3.55;2.97;;;;;;;;;;5094174;28;20016;-57
2023/10/30 05:06:14;;;;;;;4.10;3.25;;;;;;;;;;5093603;28;20024;-57
2023/10/30 05:08:40;;;;;;;4.35;3.03;;;;;;;;;;5094049;28;20024;-57
2023/10/30 05:11:06;;;;;;;3.90;2.97;;;;;;;;;;5094147;28;20027;-57
2023/10/30 05:13:33;;;;;;;4.03;3.42;;;;;;;;;;5093535;28;20028;-57
2023/10/30 05:15:59;;;;;;;4.00;3.28;;;;;;;;;;5094038;28;20024;-57
2023/10/30 05:18:25;;;;;;;4.70;3.40;;;;;;;;;;5093397;28;20039;-57
2023/10/30 05:20:51;;;;;;;4.43;3.35;;;;;;;;;;5093939;28;20097;-57
2023/10/30 05:23:17;;;;;;;6.40;4.40;;;;;;;;;;5093485;28;20028;-57
2023/10/30 05:25:43;;;;;;;5.20;4.65;;;;;;;;;;5092991;28;20066;-57
2023/10/30 05:28:09;;;;;;;4.82;3.97;;;;;;;;;;5093252;28;20024;-57
2023/10/30 05:30:35;;;;;;;4.35;3.80;;;;;;;;;;5093183;28;20472;-57
2023/10/30 05:33:02;;;;;;;4.25;3.47;;;;;;;;;;5093228;28;20031;-57
2023/10/30 05:35:27;;;;;;;4.38;3.83;;;;;;;;;;5093558;28;20078;-57
2023/10/30 05:37:53;;;;;;;4.30;3.90;;;;;;;;;;5092850;28;20194;-57
2023/10/30 05:40:23;;;;;;;3.67;3.33;;;;;;;;;;5093639;28;20106;-57
2023/10/30 05:42:49;;;;;;;5.68;4.03;;;;;;;;;;5093241;28;20024;-57
2023/10/30 05:45:15;;;;;;;4.10;3.70;;;;;;;;;;5092969;28;20327;-57
2023/10/30 05:47:41;;;;;;;4.78;4.28;;;;;;;;;;5093962;28;20032;-57
2023/10/30 05:50:07;;;;;;;4.55;4.15;;;;;;;;;;5093199;28;20106;-57
2023/10/30 05:52:33;;;;;;;4.78;3.92;;;;;;;;;;5093173;28;20024;-57
2023/10/30 05:54:59;;;;;;;4.28;3.80;;;;;;;;;;5095131;28;20027;-57
2023/10/30 05:57:25;;;;;;;3.80;3.40;;;;;;;;;;5096958;28;20107;-57
2023/10/30 05:59:51;;;;;;;3.72;3.25;;;;;;;;;;5096569;28;20035;-57
2023/10/30 06:02:17;;;;;;;4.13;3.67;;;;;;;;;;5096594;28;20374;-57
2023/10/30 06:04:43;;;;;;;4.22;3.83;;;;;;;;;;5096949;28;20024;-57
2023/10/30 06:07:09;;;;;;;4.88;3.88;;;;;;;;;;5096307;28;20035;-57
2023/10/30 06:09:35;;;;;;;4.18;3.08;;;;;;;;;;5096561;28;20024;-58
2023/10/30 06:12:01;;;;;;;5.35;3.70;;;;;;;;;;5096438;28;20073;-58
2023/10/30 06:14:27;;;;;;;4.15;3.72;;;;;;;;;;5096767;28;20433;-58
2023/10/30 06:16:53;;;;;;;5.80;4.85;;;;;;;;;;5097058;28;20434;-58
2023/10/30 06:19:19;;;;;;;4.68;4.10;;;;;;;;;;5096373;28;20062;-58
2023/10/30 06:21:45;;;;;;;5.05;4.50;;;;;;;;;;5096951;28;20365;-58
2023/10/30 06:24:11;;;;;;;5.13;4.63;;;;;;;;;;5096859;28;20106;-58
2023/10/30 06:26:43;;;;;;;6.00;4.47;;;;;;;;;;5096297;28;20049;-58
2023/10/30 06:29:09;;;;;;;6.28;5.15;;;;;;;;;;5096388;28;20048;-58
2023/10/30 06:31:35;;;;;;;5.80;5.20;;;;;;;;;;5096348;28;20051;-58
2023/10/30 06:34:01;;;;;;;6.90;4.93;;;;;;;;;;5096751;28;20028;-58
2023/10/30 06:36:27;;;;;;;4.97;4.47;;;;;;;;;;5096180;28;20044;-58
2023/10/30 06:38:55;;;;;;;4.43;4.03;;;;;;;;;;5096074;28;20071;-58
2023/10/30 06:41:21;;;;;;;6.45;4.25;;;;;;;;;;5096700;28;20446;-58
2023/10/30 06:43:47;;;;;;;4.18;3.78;;;;;;;;;;5096016;28;20031;-58
2023/10/30 06:46:13;;;;;;;6.15;4.97;;;;;;;;;;5095971;28;20026;-58
2023/10/30 06:48:39;;;;;;;4.72;4.22;;;;;;;;;;5095956;28;20039;-58
2023/10/30 06:51:05;;;;;;;4.78;4.20;;;;;;;;;;5096682;28;20115;-58
2023/10/30 06:53:31;;;;;;;4.40;4.00;;;;;;;;;;5096053;28;20016;-58
2023/10/30 06:55:56;;;;;;;5.05;3.97;;;;;;;;;;5095695;28;20031;-58
2023/10/30 06:58:23;;;;;;;5.53;4.18;;;;;;;;;;5095474;28;20089;-58
2023/10/30 07:00:49;;;;;;;6.55;4.82;;;;;;;;;;5095869;28;20123;-58
2023/10/30 07:03:15;;;;;;;6.13;4.38;;;;;;;;;;5096372;28;20024;-58
2023/10/30 07:05:42;;;;;;;5.20;4.70;;;;;;;;;;5094992;28;20092;-58
2023/10/30 07:08:08;;;;;;;4.68;4.25;;;;;;;;;;5095329;28;20063;-58
2023/10/30 07:10:35;;;;;;;5.50;5.00;;;;;;;;;;5096081;28;20032;-58
2023/10/30 07:13:00;;;;;;;5.18;4.68;;;;;;;;;;5095488;28;20031;-57
2023/10/30 07:15:27;;;;;;;8.20;5.03;;;;;;;;;;5095322;28;20024;-58
2023/10/30 07:17:55;;;;;;;3.90;3.50;;;;;;;;;;5095037;28;20028;-58
2023/10/30 07:20:21;;;;;;;4.70;4.20;;;;;;;;;;5095575;28;20416;-57
2023/10/30 07:22:47;;;;;;;7.40;5.10;;;;;;;;;;5094923;28;20054;-58
2023/10/30 07:25:13;;;;;;;5.03;4.22;;;;;;;;;;5095405;28;20032;-58
2023/10/30 07:27:39;;;;;;;4.93;4.47;;;;;;;;;;5095093;28;20023;-58
2023/10/30 07:30:05;;;;;;;5.03;4.45;;;;;;;;;;5095111;28;20035;-57
2023/10/30 07:32:31;;;;;;;4.95;3.88;;;;;;;;;;5095502;28;20035;-58
2023/10/30 07:34:57;;;;;;;5.10;4.60;;;;;;;;;;5095041;28;20366;-57
2023/10/30 07:37:23;;;;;;;6.68;4.63;;;;;;;;;;5095311;28;20389;-58
2023/10/30 07:39:49;;;;;;;6.20;5.50;;;;;;;;;;5094965;28;20032;-57
2023/10/30 07:42:15;;;;;;;5.70;4.90;;;;;;;;;;5094921;28;20020;-58
2023/10/30 07:44:41;;;;;;;5.85;4.53;;;;;;;;;;5094840;28;20077;-58
2023/10/30 07:47:07;;;;;;;5.60;4.85;;;;;;;;;;5094790;28;20035;-58
2023/10/30 07:49:32;;;;;;;5.45;4.82;;;;;;;;;;5095361;28;20028;-58
2023/10/30 07:51:58;;;;;;;6.35;4.82;;;;;;;;;;5094705;28;20035;-58
2023/10/30 07:54:25;;;;;;;7.60;5.60;;;;;;;;;;5095115;28;20119;-58
2023/10/30 07:56:51;;;;;;;4.63;4.22;;;;;;;;;;5094947;28;20063;-58
2023/10/30 07:59:17;;;;;;;6.90;4.75;;;;;;;;;;5094471;28;20064;-57
2023/10/30 08:01:45;;;;;;;5.65;4.75;;;;;;;;;;5094842;28;20024;-58
2023/10/30 08:04:11;;;;;;;5.78;5.18;;;;;;;;;;5095056;28;20081;-57
2023/10/30 08:06:37;;;;;;;5.90;5.30;;;;;;;;;;5094101;28;20024;-57
2023/10/30 08:09:03;;;;;;;5.43;4.90;;;;;;;;;;5095115;28;20084;-58
2023/10/30 08:11:30;;;;;;;5.88;5.03;;;;;;;;;;5095107;28;20031;-58
2023/10/30 08:13:56;;;;;;;7.03;4.70;;;;;;;;;;5094739;28;20057;-58
2023/10/30 08:16:22;;;;;;;5.40;4.90;;;;;;;;;;5094228;28;20615;-58
2023/10/30 08:18:48;;;;;;;5.05;4.53;;;;;;;;;;5093169;28;20115;-59
2023/10/30 08:21:14;;;;;;;5.75;4.65;;;;;;;;;;5094744;28;20023;-59
2023/10/30 08:23:40;;;;;;;5.40;4.20;;;;;;;;;;5094118;28;20426;-59
2023/10/30 08:26:06;;;;;;;5.85;4.22;;;;;;;;;;5094020;28;20028;-59
2023/10/30 08:28:33;;;;;;;6.03;4.82;;;;;;;;;;5094606;28;20111;-58
2023/10/30 08:30:59;;;;;;;4.47;4.07;;;;;;;;;;5094268;28;20034;-59
2023/10/30 08:33:25;;;;;;;4.93;4.28;;;;;;;;;;5093899;28;20028;-59
2023/10/30 08:35:50;;;;;;;4.90;4.30;;;;;;;;;;5094194;28;20357;-59
2023/10/30 08:38:16;;;;;;;4.55;4.15;;;;;;;;;;5094691;28;20033;-58
2023/10/30 08:40:42;;;;;;;4.78;3.97;;;;;;;;;;5094527;28;20012;-59
2023/10/30 08:43:08;;;;;;;4.97;3.30;;;;;;;;;;5094209;28;20059;-59
2023/10/30 08:45:35;;;;;;;4.80;3.70;;;;;;;;;;5094467;28;20111;-59
2023/10/30 08:48:01;;;;;;;4.63;3.72;;;;;;;;;;5093818;28;20093;-59
2023/10/30 08:50:27;;;;;;;5.43;3.28;;;;;;;;;;5094351;28;20028;-59
2023/10/30 08:52:53;;;;;;;4.55;4.15;;;;;;;;;;5093698;28;20120;-59
2023/10/30 08:55:19;;;;;;;5.90;4.45;;;;;;;;;;5093697;28;20028;-59
2023/10/30 08:57:45;;;;;;;4.00;3.60;;;;;;;;;;5093754;28;20027;-59
2023/10/30 09:00:11;;;;;;;5.97;3.80;;;;;;;;;;5094185;28;20035;-59
2023/10/30 09:02:38;;;;;;;5.30;4.80;;;;;;;;;;5093665;28;20028;-59
2023/10/30 09:05:05;;;;;;;4.35;3.75;;;;;;;;;;5093844;28;20020;-58
2023/10/30 09:07:31;;;;;;;5.13;4.30;;;;;;;;;;5094002;28;20382;-58
2023/10/30 09:09:57;;;;;;;3.92;3.30;;;;;;;;;;5093635;28;20031;-59
2023/10/30 09:12:23;;;;;;;5.10;3.65;;;;;;;;;;5093495;28;20059;-59
2023/10/30 09:14:49;;;;;;;3.88;2.78;;;;;;;;;;5093520;28;20029;-59
2023/10/30 09:17:15;;;;;;;3.78;3.03;;;;;;;;;;5093661;28;20032;-59
2023/10/30 09:19:41;;;;;;;4.53;3.88;;;;;;;;;;5093972;28;20101;-59
2023/10/30 09:22:07;;;;;;;4.80;3.60;;;;;;;;;;5094048;28;20028;-59
2023/10/30 09:24:33;;;;;;;3.47;3.15;;;;;;;;;;5093530;28;20053;-59
2023/10/30 09:26:59;;;;;;;4.07;2.90;;;;;;;;;;5094004;28;20450;-59
2023/10/30 09:29:25;;;;;;;3.40;2.90;;;;;;;;;;5094989;28;20035;-59
2023/10/30 09:31:51;;;;;;;3.15;2.47;;;;;;;;;;5097511;28;20130;-59
2023/10/30 09:34:17;;;;;;;5.15;3.38;;;;;;;;;;5098157;28;20111;-59
2023/10/30 09:36:43;;;;;;;3.83;3.10;;;;;;;;;;5097359;28;20059;-59
2023/10/30 09:39:09;;;;;;;4.20;3.08;;;;;;;;;;5097545;28;20040;-59
2023/10/30 09:41:43;;;;;;;3.95;2.97;;;;;;;;;;5097922;28;20446;-59
2023/10/30 09:44:10;;;;;;;3.20;2.47;;;;;;;;;;5098044;28;20099;-59
2023/10/30 09:46:37;;;;;;;3.45;2.70;;;;;;;;;;5096878;28;20551;-59
2023/10/30 09:49:04;;;;;;;3.28;2.42;;;;;;;;;;5097151;28;20079;-59
2023/10/30 09:51:30;;;;;;;3.05;2.25;;;;;;;;;;5097656;28;20039;-59
2023/10/30 09:53:58;;;;;;;3.33;2.58;;;;;;;;;;5097764;28;20020;-59
2023/10/30 09:56:25;;;;;;;3.28;2.38;;;;;;;;;;5096962;28;20056;-59
2023/10/30 09:58:51;;;;;;;3.92;3.28;;;;;;;;;;5096865;28;20462;-59
2023/10/30 10:01:18;;;;;;;3.53;2.50;;;;;;;;;;5097208;28;20059;-59
2023/10/30 10:03:44;;;;;;;4.43;2.58;;;;;;;;;;5096843;28;20057;-59
2023/10/30 10:06:10;;;;;;;3.30;2.15;;;;;;;;;;5096855;28;20410;-59
2023/10/30 10:08:36;;;;;;;4.38;2.65;;;;;;;;;;5097441;28;20026;-59
2023/10/30 10:11:05;;;;;;;2.92;2.30;;;;;;;;;;5096534;28;20059;-59
2023/10/30 10:13:33;;;;;;;3.08;2.03;;;;;;;;;;5096480;28;20031;-59
2023/10/30 10:16:00;;;;;;;3.38;2.50;;;;;;;;;;5096602;28;20418;-59
2023/10/30 10:18:30;;;;;;;4.55;2.05;;;;;;;;;;5096539;28;20088;-59
2023/10/30 10:20:58;;;;;;;3.20;2.33;;;;;;;;;;5096830;28;20346;-59
2023/10/30 10:23:25;;;;;;;3.33;2.17;;;;;;;;;;5097041;28;20347;-59
2023/10/30 10:25:57;;;;;;;2.40;1.60;;;;;;;;;;5096466;28;20066;-59
2023/10/30 10:28:24;;;;;;;4.82;2.10;;;;;;;;;;5096891;28;20016;-59
2023/10/30 10:30:51;;;;;;;2.60;1.55;;;;;;;;;;5096681;28;20032;-59
2023/10/30 10:33:18;;;;;;;2.25;1.55;;;;;;;;;;5097027;28;20032;-59
2023/10/30 10:35:45;;;;;;;2.58;1.50;;;;;;;;;;5095996;28;20019;-59
2023/10/30 10:38:13;;;;;;;2.08;1.42;;;;;;;;;;5096674;28;20082;-59
2023/10/30 10:40:40;;;;;;;2.13;1.35;;;;;;;;;;5096060;28;20020;-59
2023/10/30 10:43:08;;;;;;;2.05;1.02;;;;;;;;;;5095943;28;20078;-59
2023/10/30 10:45:34;;;;;;;2.33;1.20;;;;;;;;;;5096520;28;20077;-59
2023/10/30 10:48:00;;;;;;;1.95;0.95;;;;;;;;;;5096512;28;20089;-59
2023/10/30 10:50:26;;;;;;;0.95;0.52;;;;;;;;;;5096293;28;20028;-59
2023/10/30 10:52:53;;;;;;;1.17;0.60;;;;;;;;;;5095546;28;20059;-59
2023/10/30 10:55:22;;;;;;;2.28;0.63;;;;;;;;;;5096088;28;20024;-59
2023/10/30 10:58:00;;;;;;;1.20;0.47;;;;;;;;;;5095712;28;20030;-59
2023/10/30 11:00:31;;;;;;;1.05;0.50;;;;;;;;;;5096028;28;20028;-59
2023/10/30 11:03:00;;;;;;;1.02;0.50;;;;;;;;;;5095897;28;20031;-59
2023/10/30 11:05:29;;;;;;;1.52;0.60;;;;;;;;;;5095810;28;20028;-59
2023/10/30 11:08:03;;;;;;;1.40;0.52;;;;;;;;;;5095434;28;20024;-59
2023/10/30 11:10:33;;;;;;;1.58;0.88;;;;;;;;;;5096262;28;20020;-59
2023/10/30 11:13:28;;;;;;;1.70;0.70;;;;;;;;;;5095495;28;20028;-59
2023/10/30 11:16:03;;;;;;;1.13;0.55;;;;;;;;;;5023208;28;20150;-59
2023/10/30 11:18:29;;;;;;;1.02;0.68;;;;;;;;;;5095415;28;20028;-59
2023/10/30 11:21:12;;;;;;;1.27;0.52;;;;;;;;;;5095627;28;20027;-59
2023/10/30 11:23:44;;;;;;;1.30;0.45;;;;;;;;;;5095378;28;20020;-59
2023/10/30 11:26:11;;;;;;;2.15;0.70;;;;;;;;;;5095207;28;20111;-59
2023/10/30 11:28:37;;;;;;;1.75;0.75;;;;;;;;;;5094939;28;20020;-59
2023/10/30 11:31:09;;;;;;;1.20;0.43;;;;;;;;;;5095248;28;20404;-59
2023/10/30 11:33:35;;;;;;;1.58;0.55;;;;;;;;;;5095679;28;20028;-59
2023/10/30 11:36:19;;;;;;;1.00;0.43;;;;;;;;;;5094693;28;20052;-58
2023/10/30 11:38:48;;;;;;;1.33;0.52;;;;;;;;;;5094650;28;20032;-59
2023/10/30 11:41:15;;;;;;;1.90;0.60;;;;;;;;;;5095568;28;20028;-59
2023/10/30 11:43:42;;;;;;;1.23;0.65;;;;;;;;;;5095122;28;20405;-59
2023/10/30 11:46:08;;;;;;;1.90;0.63;;;;;;;;;;5094579;28;20081;-59
2023/10/30 11:48:37;;;;;;;1.15;0.47;;;;;;;;;;5094761;28;20035;-59
2023/10/30 11:51:03;;;;;;;1.38;0.50;;;;;;;;;;5095321;28;20024;-59
2023/10/30 11:53:29;;;;;;;2.15;0.57;;;;;;;;;;5094638;28;20431;-59
2023/10/30 11:55:56;;;;;;;1.42;0.60;;;;;;;;;;5094716;28;20031;-59
2023/10/30 11:58:22;;;;;;;1.77;0.55;;;;;;;;;;5094614;28;20385;-59
2023/10/30 12:00:48;;;;;;;1.85;0.75;;;;;;;;;;5095209;28;20024;-59
2023/10/30 12:03:14;;;;;;;1.15;0.57;;;;;;;;;;5094773;28;20102;-59
2023/10/30 12:05:40;;;;;;;0.88;0.40;;;;;;;;;;5095212;28;20107;-59
2023/10/30 12:08:06;;;;;;;1.38;0.60;;;;;;;;;;5094253;28;20056;-59
2023/10/30 12:10:33;;;;;;;1.65;0.80;;;;;;;;;;5094666;28;20031;-59
2023/10/30 12:12:59;;;;;;;1.30;0.65;;;;;;;;;;5094914;28;20031;-59
2023/10/30 12:15:28;;;;;;;2.15;0.68;;;;;;;;;;5094302;28;20051;-59
2023/10/30 12:17:55;;;;;;;4.05;0.70;;;;;;;;;;5094880;28;20020;-59
2023/10/30 12:20:21;;;;;;;1.30;0.68;;;;;;;;;;5095152;28;20039;-59
2023/10/30 12:22:47;;;;;;;4.18;0.68;;;;;;;;;;5094315;28;20028;-59
2023/10/30 12:25:17;;;;;;;1.90;0.63;;;;;;;;;;5094539;28;20461;-59
2023/10/30 12:27:44;;;;;;;1.00;0.50;;;;;;;;;;5094711;28;20028;-59
2023/10/30 12:30:10;;;;;;;1.48;0.73;;;;;;;;;;5094673;28;20028;-59
2023/10/30 12:32:37;;;;;;;1.65;0.70;;;;;;;;;;5093577;28;20491;-59
2023/10/30 12:35:09;;;;;;;1.30;0.52;;;;;;;;;;5093724;28;20028;-59
2023/10/30 12:37:37;;;;;;;1.08;0.40;;;;;;;;;;5094613;28;20044;-59
2023/10/30 12:40:10;;;;;;;1.08;0.50;;;;;;;;;;5094190;28;20059;-59
2023/10/30 12:42:37;;;;;;;1.30;0.50;;;;;;;;;;5093781;28;20032;-59
2023/10/30 12:45:06;;;;;;;1.63;0.82;;;;;;;;;;5094357;28;20189;-59
2023/10/30 12:47:32;;;;;;;2.25;0.85;;;;;;;;;;5093837;28;20024;-59
2023/10/30 12:49:58;;;;;;;1.60;0.63;;;;;;;;;;5094355;28;20034;-59
2023/10/30 12:52:25;;;;;;;2.00;0.88;;;;;;;;;;5093743;28;20123;-59
2023/10/30 12:54:51;;;;;;;3.00;1.05;;;;;;;;;;5094043;28;20461;-59
2023/10/30 12:57:17;;;;;;;2.53;0.75;;;;;;;;;;5093664;28;20071;-59
2023/10/30 12:59:43;;;;;;;2.28;0.70;;;;;;;;;;5094260;28;20032;-59
2023/10/30 13:02:09;;;;;;;1.30;0.60;;;;;;;;;;5093428;28;20032;-59
2023/10/30 13:04:35;;;;;;;1.33;0.60;;;;;;;;;;5093131;28;20016;-59
2023/10/30 13:07:01;;;;;;;1.80;0.77;;;;;;;;;;5093786;28;20031;-59
2023/10/30 13:09:26;;;;;;;1.38;0.70;;;;;;;;;;5093680;28;20028;-59
2023/10/30 13:11:53;;;;;;;1.80;0.95;;;;;;;;;;5093840;28;20366;-59
2023/10/30 13:14:19;;;;;;;1.25;0.80;;;;;;;;;;5094112;28;20020;-59
2023/10/30 13:16:45;;;;;;;1.90;0.95;;;;;;;;;;5093551;28;20481;-59
2023/10/30 13:19:11;;;;;;;1.60;0.70;;;;;;;;;;5093268;28;20066;-59
2023/10/30 13:21:38;;;;;;;1.88;0.98;;;;;;;;;;5093460;28;20070;-59
2023/10/30 13:24:04;;;;;;;1.95;0.80;;;;;;;;;;5093108;28;20470;-59
2023/10/30 13:26:30;;;;;;;1.70;0.80;;;;;;;;;;5093663;28;20024;-59
2023/10/30 13:28:56;;;;;;;1.55;0.82;;;;;;;;;;5093466;28;20458;-59
2023/10/30 13:31:22;;;;;;;1.65;0.80;;;;;;;;;;5093925;28;20089;-59
2023/10/30 13:33:48;;;;;;;1.60;0.85;;;;;;;;;;5092886;28;20118;-59
2023/10/30 13:36:16;;;;;;;2.35;1.00;;;;;;;;;;5093801;28;20140;-59
2023/10/30 13:38:42;;;;;;;2.05;0.82;;;;;;;;;;5093487;28;20484;-59
2023/10/30 13:41:08;;;;;;;1.73;0.90;;;;;;;;;;5093978;28;20051;-59
2023/10/30 13:43:34;;;;;;;2.65;1.35;;;;;;;;;;5093855;28;20020;-59
2023/10/30 13:46:00;;;;;;;2.55;1.00;;;;;;;;;;5093720;28;20568;-59
2023/10/30 13:48:26;;;;;;;2.72;1.17;;;;;;;;;;5093043;28;20071;-59
2023/10/30 13:50:52;;;;;;;2.10;1.10;;;;;;;;;;5093629;28;20359;-59
2023/10/30 13:53:18;;;;;;;3.28;1.00;;;;;;;;;;5093901;28;20028;-59
2023/10/30 13:55:44;;;;;;;2.95;1.15;;;;;;;;;;5093148;28;20043;-59
2023/10/30 13:58:10;;;;;;;1.02;0.60;;;;;;;;;;5093189;28;20056;-59
2023/10/30 14:00:36;;;;;;;1.67;0.80;;;;;;;;;;5093777;28;20074;-59
2023/10/30 14:03:02;;;;;;;1.40;0.73;;;;;;;;;;5093639;28;20027;-59
2023/10/30 14:05:28;;;;;;;2.65;1.05;;;;;;;;;;5093022;28;20077;-59
2023/10/30 14:07:57;;;;;;;1.88;1.10;;;;;;;;;;5093497;28;20030;-59
2023/10/30 14:10:23;;;;;;;1.38;0.88;;;;;;;;;;5093639;28;20373;-59
2023/10/30 14:12:49;;;;;;;3.50;0.85;;;;;;;;;;5093841;28;20059;-59
2023/10/30 14:15:15;;;;;;;2.33;1.10;;;;;;;;;;5092712;28;20024;-59
2023/10/30 14:17:41;;;;;;;1.98;1.10;;;;;;;;;;5095783;28;20039;-59
2023/10/30 14:20:07;;;;;;;2.22;1.20;;;;;;;;;;5096762;28;20221;-59
2023/10/30 14:22:33;;;;;;;1.60;0.82;;;;;;;;;;5096451;28;20077;-59
2023/10/30 14:25:03;;;;;;;2.10;1.30;;;;;;;;;;5096471;28;20549;-59
2023/10/30 14:27:29;;;;;;;4.65;1.02;;;;;;;;;;5096234;28;20539;-59
2023/10/30 14:29:55;;;;;;;1.65;0.90;;;;;;;;;;5096382;28;20024;-59
2023/10/30 14:32:21;;;;;;;1.85;1.05;;;;;;;;;;5096402;28;20020;-59
2023/10/30 14:34:47;;;;;;;1.83;1.13;;;;;;;;;;5096183;28;20335;-57
2023/10/30 14:37:13;;;;;;;3.38;2.33;;;;;;;;;;5096886;28;20044;-57
2023/10/30 14:39:39;;;;;;;4.28;2.45;;;;;;;;;;5095826;28;20093;-59